< < Back
Terminal Aerodrome Forecast


Current Version              Previous Versions:   1  2  3  4  5  6  7  8  9  

Terminal Aerodrome Forecast

153
FTUS42 KMLB 271720
TAFMCO
TAF
KMCO 271720Z 2718/2818 22005KT P6SM VCTS SCT035CB BKN080
      TEMPO 2718/2719 VRB15G28KT 2SM TSRA BKN025CB BKN080
     FM272200 12008KT P6SM VCSH SCT035 BKN080
     FM280200 15003KT P6SM SCT100 BKN250
     FM281400 10006KT P6SM SCT025 SCT080 BKN250=



Latest METAR

854
SAUS70 KWBC 280500 RRF
MTRMCO
METAR KMCO 280453Z 00000KT 10SM FEW100 FEW250 23/23 A3001 RMK AO2 SLP160
T02330228 402940222


USA.gov is the U.S. government's official web portal to all federal, state and local government web resources and services.